createdAt,value
2022-08-05T00:02:22.775Z,2.88
2022-08-05T00:04:55.542Z,2.50
2022-08-05T00:07:59.196Z,3.38
2022-08-05T00:10:11.276Z,2.83
2022-08-05T00:12:55.623Z,2.63
2022-08-05T00:15:55.110Z,2.88
2022-08-05T00:18:10.490Z,3.10
2022-08-05T00:20:49.214Z,3.10
2022-08-05T00:23:16.115Z,2.83
2022-08-05T00:25:46.166Z,2.72
2022-08-05T00:28:13.851Z,2.95
2022-08-05T00:30:43.996Z,2.67
2022-08-05T00:34:41.980Z,2.25
2022-08-05T00:36:15.837Z,2.33
2022-08-05T00:38:46.554Z,3.05
2022-08-05T00:41:13.589Z,2.88
2022-08-05T00:43:46.516Z,2.53
2022-08-05T00:46:14.331Z,2.85
2022-08-05T00:48:51.358Z,2.95
2022-08-05T00:51:51.999Z,3.15
2022-08-05T00:54:08.191Z,2.97
2022-08-05T00:56:38.506Z,2.75
2022-08-05T00:59:18.453Z,2.55
2022-08-05T01:01:48.882Z,2.92
2022-08-05T01:04:20.239Z,2.78
2022-08-05T01:06:55.051Z,2.83
2022-08-05T01:09:22.716Z,2.60
2022-08-05T01:11:52.258Z,2.50
2022-08-05T01:14:53.245Z,2.97
2022-08-05T01:17:43.956Z,3.05
2022-08-05T01:20:29.677Z,2.67
2022-08-05T01:23:23.333Z,3.05
2022-08-05T01:26:02.690Z,2.42
2022-08-05T01:28:36.498Z,3.38
2022-08-05T01:31:45.121Z,2.65
2022-08-05T01:34:39.611Z,2.47
2022-08-05T01:37:18.158Z,2.80
2022-08-05T01:39:59.017Z,2.80
2022-08-05T01:42:28.093Z,2.70
2022-08-05T01:45:02.375Z,2.20
2022-08-05T01:47:39.052Z,2.63
2022-08-05T01:50:15.652Z,2.20
2022-08-05T01:55:14.759Z,2.78
2022-08-05T01:58:18.826Z,2.65
2022-08-05T02:00:35.727Z,2.30
2022-08-05T02:03:24.007Z,2.65
2022-08-05T02:05:59.643Z,2.33
2022-08-05T02:11:05.318Z,2.85
2022-08-05T02:13:53.786Z,2.33
2022-08-05T02:16:22.374Z,3.25
2022-08-05T02:19:11.048Z,2.63
2022-08-05T02:21:46.884Z,2.28
2022-08-05T02:24:23.368Z,2.50
2022-08-05T02:26:56.475Z,2.67
2022-08-05T02:29:58.897Z,2.20
2022-08-05T02:32:23.708Z,2.30
2022-08-05T02:34:55.078Z,2.40
2022-08-05T02:37:23.801Z,2.50
2022-08-05T02:39:53.718Z,2.33
2022-08-05T02:42:26.089Z,2.50
2022-08-05T02:44:56.780Z,2.50
2022-08-05T02:47:36.551Z,2.30
2022-08-05T02:50:18.154Z,2.67
2022-08-05T02:52:46.714Z,3.00
2022-08-05T02:55:14.562Z,2.67
2022-08-05T02:58:11.928Z,2.63
2022-08-05T03:00:35.141Z,2.38
2022-08-05T03:03:10.344Z,2.88
2022-08-05T03:06:56.225Z,2.65
2022-08-05T03:08:29.751Z,2.92
2022-08-05T03:11:53.400Z,2.65
2022-08-05T03:13:51.510Z,3.22
2022-08-05T03:16:29.975Z,2.83
2022-08-05T03:18:59.246Z,2.78
2022-08-05T03:21:28.877Z,2.70
2022-08-05T03:24:00.858Z,3.08
2022-08-05T03:26:31.527Z,3.20
2022-08-05T03:28:59.893Z,2.40
2022-08-05T03:31:56.772Z,2.55
2022-08-05T03:34:14.690Z,2.70
2022-08-05T03:36:41.716Z,2.63
2022-08-05T03:39:20.302Z,2.65
2022-08-05T03:41:54.054Z,2.30
2022-08-05T03:44:23.846Z,2.17
2022-08-05T03:46:51.034Z,2.70
2022-08-05T03:49:18.517Z,2.33
2022-08-05T03:52:50.073Z,2.40
2022-08-05T03:56:04.725Z,2.70
2022-08-05T03:57:52.051Z,2.30
2022-08-05T04:00:26.009Z,2.53
2022-08-05T04:02:58.955Z,2.10
2022-08-05T04:05:34.053Z,2.67
2022-08-05T04:08:14.472Z,2.40
2022-08-05T04:10:44.602Z,2.72
2022-08-05T04:13:12.176Z,2.72
2022-08-05T04:15:39.760Z,2.40
2022-08-05T04:18:28.023Z,2.42
2022-08-05T04:20:58.574Z,2.72
2022-08-05T04:23:57.125Z,2.20
2022-08-05T04:26:15.571Z,2.00
2022-08-05T04:28:51.122Z,2.10
2022-08-05T04:31:19.827Z,2.17
2022-08-05T04:34:18.975Z,2.40
2022-08-05T04:36:45.902Z,2.28
2022-08-05T04:39:17.688Z,2.05
2022-08-05T04:41:46.238Z,2.17
2022-08-05T04:44:16.163Z,2.03
2022-08-05T04:46:48.695Z,1.88
2022-08-05T04:49:15.703Z,2.25
2022-08-05T04:51:45.643Z,1.85
2022-08-05T04:54:14.890Z,2.08
2022-08-05T04:56:42.102Z,2.20
2022-08-05T04:59:22.372Z,2.20
2022-08-05T05:02:07.693Z,2.15
2022-08-05T05:04:47.512Z,2.65
2022-08-05T05:07:17.148Z,2.22
2022-08-05T05:09:45.479Z,2.30
2022-08-05T05:12:12.733Z,2.50
2022-08-05T05:14:42.741Z,2.95
2022-08-05T05:17:23.449Z,2.45
2022-08-05T05:19:54.679Z,2.72
2022-08-05T05:22:23.012Z,2.75
2022-08-05T05:24:57.688Z,2.50
2022-08-05T05:27:45.068Z,2.40
2022-08-05T05:30:31.009Z,2.80
2022-08-05T05:33:03.611Z,2.80
2022-08-05T05:35:42.547Z,2.75
2022-08-05T05:38:12.961Z,2.50
2022-08-05T05:40:49.894Z,2.78
2022-08-05T05:43:27.875Z,2.17
2022-08-05T05:46:12.212Z,2.30
2022-08-05T05:48:44.006Z,2.45
2022-08-05T05:51:15.135Z,2.67
2022-08-05T05:53:45.991Z,2.25
2022-08-05T05:56:32.432Z,2.78
2022-08-05T05:59:07.493Z,2.35
2022-08-05T06:01:40.511Z,2.10
2022-08-05T06:04:24.417Z,2.25
2022-08-05T06:06:51.380Z,2.00
2022-08-05T06:09:25.956Z,1.80
2022-08-05T06:12:06.420Z,2.10
2022-08-05T06:14:36.768Z,2.20
2022-08-05T06:17:21.964Z,2.00
2022-08-05T06:19:56.701Z,1.95
2022-08-05T06:22:29.450Z,1.80
2022-08-05T06:24:56.967Z,1.73
2022-08-05T06:28:11.467Z,2.00
2022-08-05T06:30:16.706Z,2.00
2022-08-05T06:32:47.432Z,1.70
2022-08-05T06:35:15.626Z,1.88
2022-08-05T06:38:08.340Z,1.70
2022-08-05T06:40:38.120Z,2.40
2022-08-05T06:43:57.412Z,1.80
2022-08-05T06:46:03.932Z,2.22
2022-08-05T06:48:56.789Z,2.10
2022-08-05T06:51:29.736Z,2.30
2022-08-05T06:54:02.605Z,1.85
2022-08-05T06:56:34.647Z,1.80
2022-08-05T06:59:04.018Z,1.67
2022-08-05T07:01:36.996Z,2.10
2022-08-05T07:04:07.749Z,2.20
2022-08-05T07:06:34.768Z,1.92
2022-08-05T07:09:04.371Z,1.85
2022-08-05T07:11:33.127Z,1.80
2022-08-05T07:14:29.471Z,1.52
2022-08-05T07:17:59.946Z,2.13
2022-08-05T07:22:38.013Z,1.90
2022-08-05T07:25:23.191Z,1.75
2022-08-05T07:28:00.591Z,1.50
2022-08-05T07:30:39.066Z,2.15
2022-08-05T07:33:10.161Z,1.90
2022-08-05T07:36:04.656Z,1.90
2022-08-05T07:38:34.219Z,2.05
2022-08-05T07:42:06.759Z,1.90
2022-08-05T07:43:56.906Z,1.73
2022-08-05T07:46:26.567Z,2.15
2022-08-05T07:49:03.931Z,1.85
2022-08-05T07:51:41.023Z,2.22
2022-08-05T07:54:26.648Z,2.10
2022-08-05T07:57:02.335Z,1.90
2022-08-05T07:59:42.385Z,2.15
2022-08-05T08:02:16.675Z,2.15
2022-08-05T08:04:49.539Z,1.88
2022-08-05T08:07:23.067Z,2.35
2022-08-05T08:09:52.880Z,2.50
2022-08-05T08:12:37.284Z,2.22
2022-08-05T08:15:09.766Z,2.38
2022-08-05T08:17:50.751Z,1.85
2022-08-05T08:20:45.256Z,2.30
2022-08-05T08:24:00.142Z,2.20
2022-08-05T08:26:00.180Z,2.10
2022-08-05T08:28:36.611Z,2.22
2022-08-05T08:31:15.091Z,2.40
2022-08-05T08:33:45.579Z,2.25
2022-08-05T08:36:38.127Z,2.17
2022-08-05T08:39:05.342Z,2.08
2022-08-05T08:41:52.479Z,2.00
2022-08-05T08:45:20.173Z,2.10
2022-08-05T08:48:06.205Z,1.73
2022-08-05T08:50:31.262Z,1.60
2022-08-05T08:53:07.937Z,2.75
2022-08-05T08:56:03.837Z,2.28
2022-08-05T08:58:43.285Z,1.83
2022-08-05T09:01:16.379Z,1.65
2022-08-05T09:03:57.471Z,2.20
2022-08-05T09:06:31.419Z,1.90
2022-08-05T09:09:00.996Z,1.83
2022-08-05T09:11:51.155Z,2.15
2022-08-05T09:14:59.037Z,1.90
2022-08-05T09:17:15.943Z,1.73
2022-08-05T09:20:02.520Z,1.60
2022-08-05T09:26:01.420Z,1.75
2022-08-05T09:28:31.620Z,2.05
2022-08-05T09:31:22.093Z,1.90
2022-08-05T09:33:56.219Z,1.73
2022-08-05T09:36:27.383Z,1.77
2022-08-05T09:39:16.564Z,1.80
2022-08-05T09:42:04.046Z,1.95
2022-08-05T09:44:36.592Z,2.72
2022-08-05T09:47:12.808Z,2.25
2022-08-05T09:50:03.532Z,1.48
2022-08-05T09:52:33.644Z,1.70
2022-08-05T09:55:55.620Z,1.70
2022-08-05T09:57:54.363Z,1.90
2022-08-05T10:00:26.542Z,2.00
2022-08-05T10:02:58.570Z,2.15
2022-08-05T10:05:28.428Z,2.10
2022-08-05T10:08:37.009Z,1.88
2022-08-05T10:10:54.342Z,1.55
2022-08-05T10:13:43.903Z,1.92
2022-08-05T10:16:32.223Z,1.80
2022-08-05T10:19:01.846Z,1.92
2022-08-05T10:21:40.240Z,2.08
2022-08-05T10:24:10.717Z,2.03
2022-08-05T10:26:49.109Z,1.63
2022-08-05T10:29:23.937Z,1.70
2022-08-05T10:32:59.446Z,1.65
2022-08-05T10:35:00.556Z,1.70
2022-08-05T10:37:40.093Z,1.92
2022-08-05T10:40:40.487Z,2.00
2022-08-05T10:43:50.467Z,1.60
2022-08-05T10:46:23.891Z,1.65
2022-08-05T10:49:01.447Z,1.58
2022-08-05T10:51:48.698Z,2.00
2022-08-05T10:54:47.263Z,1.75
2022-08-05T10:57:30.901Z,1.52
2022-08-05T11:00:24.005Z,1.63
2022-08-05T11:03:24.291Z,1.88
2022-08-05T11:06:15.493Z,1.60
2022-08-05T11:09:16.436Z,2.00
2022-08-05T11:11:53.416Z,1.60
2022-08-05T11:14:49.493Z,1.60
2022-08-05T11:17:57.583Z,3.22
2022-08-05T11:20:43.860Z,1.77
2022-08-05T11:24:03.228Z,2.55
2022-08-05T11:26:28.858Z,1.58
2022-08-05T11:29:06.568Z,1.85
2022-08-05T11:31:57.234Z,1.77
2022-08-05T11:34:37.930Z,1.90
2022-08-05T11:37:06.234Z,1.90
2022-08-05T11:39:55.596Z,1.90
2022-08-05T11:42:29.827Z,1.60
2022-08-05T11:45:05.509Z,1.92
2022-08-05T11:47:48.510Z,1.80
2022-08-05T11:50:17.544Z,1.90
2022-08-05T11:52:46.190Z,2.15
2022-08-05T11:55:16.028Z,3.50
2022-08-05T11:58:09.771Z,3.42
2022-08-05T12:00:37.787Z,2.25
2022-08-05T12:03:28.529Z,1.88
2022-08-05T12:06:02.650Z,1.95
2022-08-05T12:08:31.535Z,2.05
2022-08-05T12:11:05.871Z,1.80
2022-08-05T12:13:48.919Z,1.50
2022-08-05T12:16:19.497Z,2.17
2022-08-05T12:18:52.150Z,2.13
2022-08-05T12:21:23.609Z,1.60
2022-08-05T12:23:58.455Z,1.92
2022-08-05T12:26:39.640Z,1.75
2022-08-05T12:29:23.299Z,1.92
2022-08-05T12:32:02.076Z,2.00
2022-08-05T12:34:35.829Z,1.67
2022-08-05T12:37:17.222Z,1.90
2022-08-05T12:39:51.410Z,1.95
2022-08-05T12:42:20.999Z,1.80
2022-08-05T12:44:48.669Z,2.10
2022-08-05T12:47:28.699Z,2.13
2022-08-05T12:50:03.316Z,2.13
2022-08-05T12:52:39.468Z,2.15
2022-08-05T12:55:25.698Z,2.00
2022-08-05T12:58:52.425Z,2.22
2022-08-05T13:02:00.872Z,1.75
2022-08-05T13:03:32.571Z,2.10
2022-08-05T13:06:01.207Z,2.05
2022-08-05T13:08:32.214Z,2.28
2022-08-05T13:11:02.144Z,2.40
2022-08-05T13:14:05.834Z,2.13
2022-08-05T13:16:17.655Z,2.28
2022-08-05T13:18:57.898Z,2.03
2022-08-05T13:21:27.685Z,2.28
2022-08-05T13:23:55.755Z,2.22
2022-08-05T13:26:29.982Z,2.70
2022-08-05T13:28:59.138Z,2.43
2022-08-05T13:31:33.796Z,2.35
2022-08-05T13:34:22.941Z,2.38
2022-08-05T13:36:53.162Z,2.40
2022-08-05T13:40:13.377Z,2.15
2022-08-05T13:42:13.932Z,2.72
2022-08-05T13:44:45.376Z,2.40
2022-08-05T13:47:34.864Z,2.20
2022-08-05T13:50:04.261Z,2.25
2022-08-05T13:52:32.270Z,2.10
2022-08-05T13:55:07.296Z,2.25
2022-08-05T13:57:48.725Z,2.42
2022-08-05T14:00:26.913Z,2.10
2022-08-05T14:02:56.515Z,2.28
2022-08-05T14:05:29.729Z,2.67
2022-08-05T14:08:20.181Z,2.50
2022-08-05T14:10:48.963Z,2.38
2022-08-05T14:13:16.328Z,2.70
2022-08-05T14:16:08.353Z,2.42
2022-08-05T14:18:30.458Z,2.67
2022-08-05T14:20:59.123Z,3.00
2022-08-05T14:23:33.597Z,2.60
2022-08-05T14:26:04.876Z,2.35
2022-08-05T14:28:33.219Z,2.30
2022-08-05T14:31:01.604Z,2.35
2022-08-05T14:33:56.546Z,2.75
2022-08-05T14:36:21.396Z,2.90
2022-08-05T14:38:53.262Z,2.63
2022-08-05T14:41:21.160Z,2.50
2022-08-05T14:44:01.811Z,2.63
2022-08-05T14:46:37.029Z,3.10
2022-08-05T14:49:07.460Z,3.33
2022-08-05T14:51:37.691Z,2.65
2022-08-05T14:54:27.638Z,3.20
2022-08-05T14:56:55.749Z,3.00
2022-08-05T14:59:23.141Z,2.88
2022-08-05T15:01:50.587Z,3.03
2022-08-05T15:04:20.575Z,2.85
2022-08-05T15:06:49.585Z,4.18
2022-08-05T15:09:51.141Z,2.97
2022-08-05T15:12:06.389Z,3.03
2022-08-05T15:14:43.118Z,3.13
2022-08-05T15:17:45.896Z,3.88
2022-08-05T15:20:05.126Z,3.20
2022-08-05T15:22:32.104Z,3.30
2022-08-05T15:25:13.851Z,3.15
2022-08-05T15:27:42.706Z,2.63
2022-08-05T15:30:11.107Z,2.95
2022-08-05T15:32:41.540Z,3.30
2022-08-05T15:35:10.551Z,3.10
2022-08-05T15:38:34.854Z,3.70
2022-08-05T15:41:02.517Z,3.30
2022-08-05T15:43:20.332Z,3.08
2022-08-05T15:46:00.663Z,3.63
2022-08-05T15:48:28.559Z,3.10
2022-08-05T15:50:56.430Z,3.22
2022-08-05T15:53:26.585Z,3.13
2022-08-05T15:56:14.094Z,3.28
2022-08-05T15:58:41.605Z,3.20
2022-08-05T16:01:16.341Z,3.20
2022-08-05T16:03:50.515Z,3.63
2022-08-05T16:06:19.578Z,3.47
2022-08-05T16:08:48.321Z,3.42
2022-08-05T16:11:18.555Z,3.83
2022-08-05T16:13:48.597Z,3.70
2022-08-05T16:16:21.279Z,3.30
2022-08-05T16:18:53.081Z,3.67
2022-08-05T16:22:00.220Z,3.58
2022-08-05T16:24:12.759Z,3.13
2022-08-05T16:26:58.490Z,3.67
2022-08-05T16:29:26.734Z,3.90
2022-08-05T16:31:56.798Z,3.85
2022-08-05T16:34:26.264Z,3.70
2022-08-05T16:36:54.046Z,3.72
2022-08-05T16:39:21.330Z,4.55
2022-08-05T16:42:14.041Z,4.82
2022-08-05T16:44:44.350Z,5.68
2022-08-05T16:47:28.711Z,6.75
2022-08-05T16:50:04.276Z,6.00
2022-08-05T16:52:33.476Z,5.85
2022-08-05T16:55:00.864Z,5.43
2022-08-05T16:57:52.969Z,5.20
2022-08-05T17:00:26.257Z,5.50
2022-08-05T17:03:15.311Z,6.18
2022-08-05T17:05:53.733Z,5.80
2022-08-05T17:08:36.088Z,5.70
2022-08-05T17:11:12.781Z,4.28
2022-08-05T17:13:44.790Z,4.90
2022-08-05T17:16:29.948Z,5.70
2022-08-05T17:18:59.788Z,4.43
2022-08-05T17:21:36.060Z,5.60
2022-08-05T17:24:31.263Z,4.63
2022-08-05T17:26:56.348Z,4.35
2022-08-05T17:29:33.749Z,5.07
2022-08-05T17:32:17.240Z,6.15
2022-08-05T17:34:49.112Z,5.13
2022-08-05T17:37:39.866Z,4.75
2022-08-05T17:40:10.273Z,5.35
2022-08-05T17:42:41.441Z,5.82
2022-08-05T17:45:20.738Z,5.53
2022-08-05T17:47:53.979Z,5.13
2022-08-05T17:50:29.005Z,4.40
2022-08-05T17:53:05.130Z,4.70
2022-08-05T17:55:37.791Z,5.30
2022-08-05T17:58:12.884Z,4.97
2022-08-05T18:00:44.525Z,5.30
2022-08-05T18:03:24.077Z,5.30
2022-08-05T18:06:04.910Z,5.32
2022-08-05T18:08:33.697Z,5.65
2022-08-05T18:11:03.159Z,5.80
2022-08-05T18:13:36.834Z,5.53
2022-08-05T18:16:13.501Z,5.95
2022-08-05T18:18:42.317Z,5.70
2022-08-05T18:21:21.164Z,5.90
2022-08-05T18:23:53.982Z,6.68
2022-08-05T18:26:29.375Z,6.05
2022-08-05T18:28:59.376Z,6.00
2022-08-05T18:31:33.780Z,5.90
2022-08-05T18:34:06.431Z,6.38
2022-08-05T18:36:41.264Z,5.75
2022-08-05T18:39:22.361Z,6.05
2022-08-05T18:42:06.253Z,6.10
2022-08-05T18:44:51.403Z,6.15
2022-08-05T18:47:22.931Z,6.38
2022-08-05T18:50:12.876Z,6.60
2022-08-05T18:52:50.509Z,6.60
2022-08-05T18:55:22.311Z,5.95
2022-08-05T18:57:53.176Z,5.82
2022-08-05T19:00:27.151Z,6.18
2022-08-05T19:03:03.663Z,6.43
2022-08-05T19:06:13.250Z,6.72
2022-08-05T19:08:18.994Z,6.65
2022-08-05T19:10:45.937Z,6.53
2022-08-05T19:13:16.040Z,6.70
2022-08-05T19:15:57.166Z,6.80
2022-08-05T19:18:28.125Z,6.40
2022-08-05T19:20:56.044Z,6.90
2022-08-05T19:24:05.570Z,7.35
2022-08-05T19:26:11.340Z,7.07
2022-08-05T19:28:43.823Z,7.28
2022-08-05T19:31:13.393Z,7.38
2022-08-05T19:33:48.710Z,7.85
2022-08-05T19:36:23.970Z,7.90
2022-08-05T19:38:51.550Z,7.78
2022-08-05T19:41:22.084Z,7.57
2022-08-05T19:44:13.826Z,7.72
2022-08-05T19:46:41.175Z,7.82
2022-08-05T19:49:16.502Z,8.45
2022-08-05T19:52:09.436Z,8.50
2022-08-05T19:54:31.928Z,8.23
2022-08-05T19:57:09.310Z,8.07
2022-08-05T19:59:59.391Z,8.65
2022-08-05T20:02:31.494Z,8.82
2022-08-05T20:04:59.751Z,8.27
2022-08-05T20:07:46.930Z,8.40
2022-08-05T20:10:16.354Z,8.00
2022-08-05T20:12:46.188Z,8.68
2022-08-05T20:15:23.118Z,8.70
2022-08-05T20:18:10.569Z,8.75
2022-08-05T20:20:51.891Z,8.95
2022-08-05T20:23:22.522Z,8.68
2022-08-05T20:25:52.338Z,9.02
2022-08-05T20:28:21.327Z,8.90
2022-08-05T20:30:49.528Z,9.10
2022-08-05T20:33:16.465Z,9.77
2022-08-05T20:35:45.646Z,9.45
2022-08-05T20:38:20.163Z,9.02
2022-08-05T20:40:55.385Z,8.98
2022-08-05T20:43:33.370Z,9.63
2022-08-05T20:46:18.485Z,9.40
2022-08-05T20:48:52.366Z,9.00
2022-08-05T20:51:19.532Z,8.57
2022-08-05T20:53:56.885Z,9.10
2022-08-05T20:56:28.974Z,9.65
2022-08-05T20:59:04.158Z,10.27
2022-08-05T21:01:41.761Z,10.40
2022-08-05T21:04:10.780Z,9.82
2022-08-05T21:06:45.476Z,9.35
2022-08-05T21:09:14.643Z,9.18
2022-08-05T21:12:08.089Z,9.10
2022-08-05T21:14:35.064Z,9.32
2022-08-05T21:17:04.890Z,9.15
2022-08-05T21:19:47.629Z,8.35
2022-08-05T21:22:18.707Z,9.45
2022-08-05T21:24:51.565Z,8.98
2022-08-05T21:27:25.257Z,9.10
2022-08-05T21:29:56.013Z,8.87
2022-08-05T21:32:27.690Z,9.18
2022-08-05T21:35:08.879Z,9.00
2022-08-05T21:37:53.106Z,9.32
2022-08-05T21:40:24.358Z,9.53
2022-08-05T21:42:52.943Z,9.23
2022-08-05T21:45:26.436Z,8.75
2022-08-05T21:48:09.337Z,8.70
2022-08-05T21:50:37.316Z,9.80
2022-08-05T21:53:16.287Z,8.90
2022-08-05T21:56:04.910Z,9.45
2022-08-05T21:58:32.381Z,9.40
2022-08-05T22:01:00.006Z,9.00
2022-08-05T22:03:52.815Z,9.32
2022-08-05T22:06:15.952Z,9.32
2022-08-05T22:08:51.798Z,8.50
2022-08-05T22:11:34.940Z,8.20
2022-08-05T22:14:05.740Z,9.15
2022-08-05T22:16:51.291Z,8.10
2022-08-05T22:20:03.522Z,8.82
2022-08-05T22:22:06.884Z,8.93
2022-08-05T22:24:53.535Z,9.65
2022-08-05T22:28:10.897Z,8.80
2022-08-05T22:30:35.292Z,8.77
2022-08-05T22:33:04.506Z,8.65
2022-08-05T22:35:49.221Z,9.95
2022-08-05T22:38:17.275Z,8.75
2022-08-05T22:40:49.379Z,9.52
2022-08-05T22:43:36.630Z,8.98
2022-08-05T22:46:13.231Z,8.93
2022-08-05T22:48:41.935Z,9.52
2022-08-05T22:51:15.976Z,8.77
2022-08-05T22:53:51.050Z,8.63
2022-08-05T22:56:30.597Z,8.90
2022-08-05T22:59:04.008Z,9.13
2022-08-05T23:02:03.836Z,9.43
2022-08-05T23:04:33.811Z,9.40
2022-08-05T23:07:01.250Z,8.27
2022-08-05T23:09:57.470Z,8.45
2022-08-05T23:12:18.016Z,8.70
2022-08-05T23:14:45.202Z,8.70
2022-08-05T23:17:34.349Z,8.82
2022-08-05T23:20:16.290Z,8.60
2022-08-05T23:22:47.437Z,9.10
2022-08-05T23:25:53.688Z,8.93
2022-08-05T23:28:06.970Z,8.68
2022-08-05T23:30:40.369Z,8.75
2022-08-05T23:33:22.092Z,9.00
2022-08-05T23:35:55.167Z,8.73
2022-08-05T23:38:24.215Z,8.98
2022-08-05T23:40:52.876Z,9.13
2022-08-05T23:43:25.456Z,8.93
2022-08-05T23:46:20.579Z,9.02
2022-08-05T23:49:00.659Z,8.77
2022-08-05T23:51:53.915Z,9.13
2022-08-05T23:54:30.472Z,9.38
2022-08-05T23:57:03.346Z,9.48
